HEAR

El Arish International Airport

El Arish, Egypt
METAR HEAR 181900Z 00000KT 9999 17/11 Q1019 NOSIG
Observed Flight Rules
Dec-18 @ 19:00 UTC (an hour ago)
Wind Visibility
Calm 10,000+ meters
Temperatures Readings
Current 17°C / 63°F
Dewpoint 11°C / 52°F
Humidity 68%
Altimeter 30.09" Hg
Pressure 1019 hPa
Elevation 32
METAR HEAR 181900Z 00000KT 9999 17/11 Q1019 NOSIG
Observed Flight Rules
Dec-18 @ 19:00 UTC
(an hour ago)
Wind Visibility
Calm 10,000+ meters
Temperature Dewpoint
17°C / 63°F 11°C / 52°F
Humidity Altimeter Pressure
68% 30.09" Hg 1019 hPa